You are on page 1of 3

X Cursa Portus Magnus 2019

Cursa popular
domingo, 31 de marzo de 2019

Club Atletisme Sa Raval

RESULTATS ABSOLUTS X Cursa Portus Magnus 2019


Dorsal Nom i Llinatges Any nax Club/Ciutat Pos-Cat T_Oficial m/km Pos Real T_Real
1 155 Anass Bourass 1994 1- ABM 0:09:17 3:06

2 107 Adrian Guirado 1992 Peña Deportiva Santa Eulari 2- ABM 0:09:17 3:06

3 325 David Grille Marin 1987 U-run Eivissa 3- ABM 0:09:55 3:18

4 100 Isidro Gil Ramos 1-V45M 0:10:04 3:21

5 333 José Serra Torres 1982 Sa Raval 1-V35M 0:10:08 3:23

6 74 César Pérez 1977 C.A. Pitius 1-V40M 0:10:08 3:23

7 157 Wadie Hamimouch 1983 2-V35M 0:10:12 3:24

8 335 Javier Hernández Diaz 1987 Club Atletismo Ibiza 1-V30M 0:10:19 3:26

9 343 Daniel González Fernández 1987 2-V30M 0:10:23 3:28

10 32 Pedro Moreno Taltavull 1968 CAB-Siurell O.C. 1-V50M 0:10:23 3:28

11 16 Joan Torres Mari 2004 Eiviatletisme Club Esportiu 1-S16M 0:10:48 3:36

12 91 Vicente Sala Torres 1983 Ce Matzinats 3-V35M 0:10:48 3:36

13 306 Norman Mari 1975 Es Verros De Ses Salines 2-V40M 0:10:54 3:38

14 97 Giulio Magnasco Tabacchi 1991 TriDeporte 3-V30M 0:10:55 3:38

15 38 Vicent tur Serra 1973 Sa Raval 2-V45M 0:10:57 3:39

16 3 Albert Cardona Ferrer 2003 1-S18M 0:11:00 3:40

17 101 Andoni Valencia Molero 1988 A.D. Ibiza Half Triathlon 4-V30M 0:11:05 3:42

18 24 Manuel Martínez Campillos 1995 U-run Eivissa 5-V30M 0:11:08 3:43

19 87 Pere Juan Torres 1973 Eiviatletisme Club Esportiu 3-V45M 0:11:13 3:44

20 105 Sergio V Molina Colomar 1983 G.D. Presuntos Triatletas 4-V35M 0:11:15 3:45

21 37 Thierry Torres Rodriguez 1996 U-run Eivissa 6-V30M 0:11:16 3:45

22 340 Alex Calin 1992 Sa Raval 7-V30M 0:11:20 3:47

23 309 Carlos Alcacer Lanzas 1983 G.D. Presuntos Triatletas 5-V35M 0:11:26 3:49

24 35 Sergio Medel 1980 6-V35M 0:11:31 3:50

25 12 Francisco Javier Martín Grandes 1984 8-V30M 0:11:32 3:51

26 54 Roberto Lopez Ortega 1984 Sa Raval 9-V30M 0:11:33 3:51

27 319 Marc Josep Mari Ferrer 1986 Grup Esportiu Espalmador d 10-V30M 0:11:34 3:51

28 345 Diego Ponce Costa 1974 Sa Raval 3-V40M 0:11:35 3:52

29 301 Juan Manuel Lagares Gonzalez 1983 7-V35M 0:11:37 3:52

30 321 Jordi Rayus 1981 G. D. Presuntos Triatletas 8-V35M 0:11:38 3:53

31 347 Roberto Sebastià Melero 1975 Club Atletisme Santa Eulària 4-V40M 0:11:45 3:55

32 14 German Carreño Gutierrez 1995 Club Atletisme Santa Eulària 11-V30M 0:11:51 3:57

33 52 Vicent Ribas Torres 2005 Sa Raval 2-S16M 0:11:57 3:59

34 85 Andoni Valencia Aparicio 1964 A.D. Ibiza Half Triathlon 2-V50M 0:12:02 4:01

35 69 Jesús López Muñoz 2003 Sa Raval 2-S18M 0:12:03 4:01

36 328 Xevi Jiménez Avila 1973 Sa Raval 4-V45M 0:12:05 4:02

37 80 Eduardo Antonio Esteban Perez 1980 Club Atletisme Santa Eulària 9-V35M 0:12:08 4:03

38 323 Antonio Muñoz Moreno 1976 G.D. Presuntos Triatletas 5-V40M 0:12:11 4:04

Página 1 de 3

www.elitechip.net info@elitechip.net TEL.676 035 552


Dorsal Nom i Llinatges Any nax Club/Ciutat Pos-Cat T_Oficial m/km Pos Real T_Real
39 82 Salvador Grau Pascual 1977 U-Run 6-V40M 0:12:13 4:04

40 318 Aurelio Díaz Tercero 1965 Club Atletisme Santa Eulària 3-V50M 0:12:16 4:05

41 48 Youssef El Moussaoui 1996 Streetworkout San Antonio 12-V30M 0:12:17 4:06

42 338 Antonio Carreño Poley 1962 Club Atletisme Santa Eulària 1-V55M 0:12:18 4:06

43 49 Yosef El Koutat Aouimar 2005 Sa Raval 3-S16M 0:12:19 4:06

44 303 Ocar Martinez Colomar 1978 Club Atletisme Santa Eulària 7-V40M 0:12:20 4:07

45 23 Manuel Izquierdo 1992 13-V30M 0:12:20 4:07

46 344 Catalina Vasilache F 1994 Ht1nm66 1- ABF 0:12:23 4:08

47 337 Manuel Santurde Izquierdo 1989 U-Run 14-V30M 0:12:25 4:08

48 98 Laura Planells Pereyra F 1977 U-Run 2- ABF 0:12:29 4:10

49 58 Patricia Fernandez Parron F 2005 Peña Deportiva Santa Eulari 3- ABF 0:12:34 4:11

50 341 Toni Granados Moreno 1982 Sa Raval 10-V35M 0:12:37 4:12

51 78 Maria Lucrecia Mari Bel F 1980 Sa Raval 1- V35F 0:12:43 4:14

52 73 Esther Martínez Rodríguez F 1977 1- V40F 0:12:44 4:15

53 25 Manuel Morcillo Riera 1981 No club 11-V35M 0:12:47 4:16

54 6 Carlos Chinarro Diaz 1973 5-V45M 0:12:51 4:17

55 86 Javier Manzano Martinez 1975 Eiviatletisme Club Esportiu 8-V40M 0:12:53 4:18

56 102 Mª José Boned Torres F 1970 Sa Raval 1- V45F 0:12:55 4:18

57 36 Sonia Torres Ribas F 2005 Sa Raval 1- S16F 0:12:59 4:20

58 89 Oscar Guasch 1982 12-V35M 0:13:03 4:21

59 19 Juan Carlos Moreno Rey 1986 15-V30M 0:13:04 4:21

60 311 Luisa Bonet Templeton F 1984 Club Atletisme Santa Eulària 2- V35F 0:13:06 4:22

61 94 Miquel Coll Buades 1992 16-V30M 0:13:08 4:23

62 60 Miquel Castell Mariano 1990 17-V30M 0:13:08 4:23

63 15 Gonzalo Torres Sosa 2005 Sa Raval 4-S16M 0:13:09 4:23

64 64 Laia Gabaldon Caballo F 2005 EMAE 2- S16F 0:13:16 4:25

65 103 Eduardo Gabaldon Boned 1973 Entrenos2019 6-V45M 0:13:17 4:26

66 79 Pascual Villalba 1983 Eiviatletisme Club Esportiu 13-V35M 0:13:24 4:28

67 93 DORSAL 93 1983 Eiviatletisme Club Esportiu 18-V30M 0:13:25 4:28

68 72 F 1974
Esther Rubio-Quintanilla Alemany Sa Raval 2- V45F 0:13:26 4:29

69 5 Carlos Brattlöf Planells 2003 Sa Raval 3-S18M 0:13:26 4:29

70 331 Francisco Bermell Marti 1960 2-V55M 0:13:30 4:30

71 44 Jose Antonio Ambrioso Rivero 1980 14-V35M 0:13:37 4:32

72 26 Mar Ribas Linares F 2004 Sa Raval 3- S16F 0:13:41 4:34

73 81 Juan Pereyra Tur 1964 Club Atletisme Santa Eulària 3-V55M 0:13:51 4:37

74 88 Susana Costa Riera F 1972 Sa Raval 3- V45F 0:13:52 4:37

75 65 Josep Riera Marí 1998 Eiviatletisme Club Esportiu 19-V30M 0:14:01 4:40

76 99 Antonia Prats Vallespir F 1970 Sa Raval 4- V45F 0:14:06 4:42

77 317 Fernando Gonzalez 1969 CN Llucmajor 7-V45M 0:14:13 4:44

78 304 Esther Villalba Espigares F 1971 Club Atletisme Santa Eulària 5- V45F 0:14:20 4:47

79 59 Mireya Alvarez Arroyo F 1991 1- V30F 0:14:36 4:52

80 70 Iris Torres Peire F 2005 Peña Deportiva Santa Eulari 4- S16F 0:14:38 4:53

81 18 José Manuel Cala Infantes 1981 15-V35M 0:14:41 4:54

82 106 Marina Cabrer Costa F 2000 1- S20F 0:14:42 4:54

83 90 Monica Cardona Torres F 1979 Creative Fitness Ibiza 3- V35F 0:14:43 4:54

Página 2 de 3

www.elitechip.net info@elitechip.net TEL.676 035 552


Dorsal Nom i Llinatges Any nax Club/Ciutat Pos-Cat T_Oficial m/km Pos Real T_Real
84 17 Toni Ribas Planells 1981 16-V35M 0:14:49 4:56

85 332 Mariano Otal Faba 1962 G.E.Es Vedrà 4-V55M 0:14:50 4:57

86 156 Sergio Medina Patiño 1999 20-V30M 0:14:51 4:57

87 330 Juan Antonio Ferrer Marí 1992 Club Atletisme Santa Eulària 21-V30M 0:15:00 5:00

88 308 Juan Antonio Tur Riera 1971 8-V45M 0:15:04 5:01

89 56 Pilar Lucas Giménez F 1978 2- V40F 0:15:12 5:04

90 104 Marcos Del Árbol 1976 Voy Flama, Flama 9-V40M 0:15:12 5:04

91 63 Lorena Villagran Caceres F 1990 Presuntos Triatletas 2- V30F 0:15:26 5:09

92 154 Vicente Planells 1954 Sa Raval 1-V60M 0:15:35 5:12

93 75 Anna Tur Feixas F 1985 Presuntos Triatletas 3- V30F 0:15:41 5:14

94 313 F 1988
Maria Del Carmen Gallego Campos Club Atletismo Ibiza 4- V30F 0:15:41 5:14

95 66 Jose Rivera 1991 22-V30M 0:15:47 5:16

96 55 Raquel Rivera Costa F 1993 5- V30F 0:15:54 5:18

97 84 Laura Pascual Llabres F 1988 U-run Eivissa 6- V30F 0:15:54 5:18

98 10 Enola Rosello Rodríguez F 2002 Club Natacion Ibiza 1- S18F 0:16:04 5:21

99 33 Sara González Jodar F 2003 Sa Raval 2- S18F 0:16:06 5:22

100 4 Ana Bermudez Fernandez F 1975 3- V40F 0:16:37 5:32

101 324 Reyes Rodriguez Escalante F 1980 Club Atletisme Santa Eulària 4- V35F 0:16:43 5:34

102 28 Mariano Torres Muñoz 1963 Sin Club 5-V55M 0:16:44 5:35

103 51 Víctor Manuel Camacho Lorente 1979 17-V35M 0:16:47 5:36

104 31 Paul Marquez Arica 1977 10-V40M 0:16:51 5:37

105 315 Ana Sabina Gil Valles F 1976 4- V40F 0:16:57 5:39

106 310 Antonio Bernal Garcia De Quiros 1947 Club Atletisme Santa Eulària 2-V60M 0:17:04 5:41

107 71 Helena Burguete Monleon F 1971 6- V45F 0:17:19 5:46

108 57 Patricia Tur Juan F 1967 1- V50F 0:17:19 5:46

109 8 Coral Fernández Moreno F 1998 7- V30F 0:17:35 5:52

110 2 Aitana Santos Perez F 1999 8- V30F 0:17:56 5:59

111 9 Daniela Contelles Sánchez F 1995 9- V30F 0:17:59 6:00

112 34 Sara Vicente Rodriguez F 1983 5- V35F 0:18:12 6:04

113 76 Amaia Alkorta Lizarribar F 1982 6- V35F 0:18:22 6:07

114 50 Xumeu García Ribas 1976 11-V40M 0:18:22 6:07

115 307 Marcela Alcon Real F 1962 1- V55F 0:18:26 6:09

116 329 Jose Alberto Garcia Pablo 1974 Club Atletisme Santa Eulària 12-V40M 0:18:46 6:15

117 302 Sonia Laura Torres F 1990 10- V30F 0:18:46 6:15

118 77 Almudena Torres F 1991 Creative Fitness Ibiza 11- V30F 0:18:52 6:17

119 11 Eva Mulero Estrella F 1971 Sa Raval 7- V45F 0:18:55 6:18

120 61 Mercedes Muñoz Montes F 1962 2- V55F 0:18:56 6:19

121 95 Angela Caballo Pisonero F 1976 Entrenos2019 5- V40F 0:19:04 6:21

122 314 Rosa Maria Campos Soler F 1963 Cash Loto 3- V55F 0:19:04 6:21

123 29 Marieli Correa Vainer F 1985 12- V30F 0:19:04 6:21

Página 3 de 3

www.elitechip.net info@elitechip.net TEL.676 035 552